Time;durP1;ratioP1;P1;durP2;ratioP2;P2;SDS_P1;SDS_P2;PMS_P1;PMS_P2;Temp;Humidity;BMP_temperature;BMP_pressure;BME280_temperature;BME280_humidity;BME280_pressure;Samples;Min_cycle;Max_cycle;Signal;HPM_P1;HPM_P2
2023/09/28 00:02:46;;;;;;;16.02;11.63;;;17.60;99.90;;;;;;5010857;28;20045;-70
2023/09/28 00:05:13;;;;;;;13.85;11.07;;;17.50;99.90;;;;;;5011103;28;20041;-70
2023/09/28 00:07:40;;;;;;;13.43;11.65;;;17.60;99.90;;;;;;5011137;28;20080;-70
2023/09/28 00:10:13;;;;;;;14.93;11.35;;;17.60;99.90;;;;;;5010715;28;20038;-70
2023/09/28 00:12:48;;;;;;;14.38;11.30;;;17.50;99.90;;;;;;5009753;28;20048;-70
2023/09/28 00:15:15;;;;;;;15.18;11.23;;;17.50;99.90;;;;;;5009541;28;20049;-70
2023/09/28 00:17:41;;;;;;;12.52;11.20;;;17.50;99.90;;;;;;5010579;28;20530;-71
2023/09/28 00:20:18;;;;;;;14.20;10.82;;;17.60;99.90;;;;;;5010515;28;20088;-70
2023/09/28 00:22:47;;;;;;;12.10;10.15;;;17.50;99.90;;;;;;5009564;28;20120;-70
2023/09/28 00:25:16;;;;;;;14.43;10.68;;;17.50;99.90;;;;;;5010562;28;20056;-70
2023/09/28 00:27:44;;;;;;;16.95;10.65;;;17.50;99.90;;;;;;5009512;28;20045;-70
2023/09/28 00:30:18;;;;;;;12.15;10.23;;;17.50;99.90;;;;;;5010334;28;20030;-70
2023/09/28 00:32:47;;;;;;;12.50;10.43;;;17.50;99.90;;;;;;5009405;28;20038;-70
2023/09/28 00:35:14;;;;;;;13.30;10.75;;;17.50;99.90;;;;;;5010293;28;20064;-70
2023/09/28 00:37:41;;;;;;;12.23;10.93;;;17.50;99.90;;;;;;5009919;28;20042;-70
2023/09/28 00:42:52;;;;;;;12.15;10.00;;;17.40;99.90;;;;;;5009004;28;20042;-70
2023/09/28 00:45:20;;;;;;;15.05;10.82;;;17.40;99.90;;;;;;5010125;28;20041;-70
2023/09/28 00:47:46;;;;;;;14.52;10.60;;;17.40;99.90;;;;;;5010225;28;20068;-70
2023/09/28 00:50:16;;;;;;;12.70;10.20;;;17.40;99.90;;;;;;5009827;28;20512;-70
2023/09/28 00:52:48;;;;;;;12.18;10.38;;;17.40;99.90;;;;;;5010106;28;20037;-70
2023/09/28 00:55:17;;;;;;;12.93;10.30;;;17.30;99.90;;;;;;5010254;28;20037;-70
2023/09/28 00:57:44;;;;;;;13.43;10.70;;;17.40;99.90;;;;;;5010088;28;20116;-70
2023/09/28 01:00:28;;;;;;;16.48;11.80;;;17.40;99.90;;;;;;5009835;28;20033;-70
2023/09/28 01:02:55;;;;;;;;;;;17.30;99.90;;;;;;5010207;28;20042;-70
2023/09/28 01:05:23;;;;;;;12.57;9.88;;;17.30;99.90;;;;;;5010089;28;20288;-70
2023/09/28 01:07:49;;;;;;;11.85;10.02;;;17.40;99.90;;;;;;5010101;28;20046;-70
2023/09/28 01:10:20;;;;;;;11.02;9.93;;;17.40;99.90;;;;;;5009749;28;20094;-70
2023/09/28 01:12:47;;;;;;;12.98;9.75;;;17.40;99.90;;;;;;5010005;28;20046;-70
2023/09/28 01:15:13;;;;;;;14.25;10.18;;;17.40;99.90;;;;;;5009761;28;20416;-70
2023/09/28 01:17:40;;;;;;;13.48;9.25;;;17.40;99.90;;;;;;5008443;28;20042;-70
2023/09/28 01:20:25;;;;;;;12.43;9.55;;;17.40;99.90;;;;;;5009460;28;20034;-70
2023/09/28 01:22:51;;;;;;;11.60;9.55;;;17.40;99.90;;;;;;5009693;28;20378;-70
2023/09/28 01:25:18;;;;;;;11.77;9.45;;;17.40;99.90;;;;;;5008584;28;20048;-71
2023/09/28 01:27:47;;;;;;;13.13;9.52;;;17.40;99.90;;;;;;5008396;28;20041;-70
2023/09/28 01:30:14;;;;;;;11.93;8.95;;;17.30;99.90;;;;;;5009546;28;20034;-70
2023/09/28 01:32:42;;;;;;;10.10;8.48;;;17.40;99.90;;;;;;5009630;28;20038;-70
2023/09/28 01:35:08;;;;;;;9.80;8.60;;;17.40;99.90;;;;;;5009555;28;20038;-70
2023/09/28 01:37:59;;;;;;;9.73;8.05;;;17.40;99.90;;;;;;5009663;28;20048;-70
2023/09/28 01:40:25;;;;;;;11.77;8.43;;;17.30;99.90;;;;;;5009193;28;20095;-71
2023/09/28 01:42:51;;;;;;;10.20;8.70;;;17.30;99.90;;;;;;5009404;28;20528;-70
2023/09/28 01:45:17;;;;;;;8.50;7.60;;;17.30;99.90;;;;;;5061402;23;20051;-72
2023/09/28 01:47:42;;;;;;;10.68;8.43;;;17.30;99.90;;;;;;5091226;28;20039;-72
2023/09/28 01:50:09;;;;;;;9.85;8.57;;;17.30;99.90;;;;;;5073070;28;20136;-72
2023/09/28 01:52:34;;;;;;;11.55;8.18;;;17.30;99.90;;;;;;5091806;28;20032;-72
2023/09/28 01:55:00;;;;;;;10.57;7.85;;;17.30;99.90;;;;;;5073608;28;20046;-72
2023/09/28 01:57:26;;;;;;;8.52;6.60;;;17.30;99.90;;;;;;5073751;28;20407;-72
2023/09/28 01:59:51;;;;;;;10.20;6.93;;;17.40;99.90;;;;;;5073653;28;20044;-72
2023/09/28 02:02:17;;;;;;;10.55;6.72;;;17.40;99.90;;;;;;5091794;28;20036;-72
2023/09/28 02:04:43;;;;;;;12.63;7.05;;;17.40;99.90;;;;;;5091591;28;20067;-72
2023/09/28 02:07:09;;;;;;;8.77;6.55;;;17.40;99.90;;;;;;5073532;28;20033;-73
2023/09/28 02:09:35;;;;;;;8.93;6.20;;;17.50;99.90;;;;;;5073142;28;20082;-72
2023/09/28 02:12:01;;;;;;;9.30;6.00;;;17.50;99.90;;;;;;5073468;28;20152;-72
2023/09/28 02:14:27;;;;;;;11.70;6.82;;;17.50;99.90;;;;;;5073414;28;20036;-72
2023/09/28 02:16:53;;;;;;;9.85;6.50;;;17.50;99.90;;;;;;5091564;28;20104;-72
2023/09/28 02:19:19;;;;;;;8.10;6.20;;;17.50;99.90;;;;;;5091366;28;20542;-72
2023/09/28 02:21:46;;;;;;;9.63;6.93;;;17.50;99.90;;;;;;5091605;28;20414;-72
2023/09/28 02:24:12;;;;;;;8.43;6.22;;;17.50;99.90;;;;;;5073056;28;20043;-73
2023/09/28 02:26:38;;;;;;;7.28;6.07;;;17.50;99.90;;;;;;5091501;28;20059;-73
2023/09/28 02:29:04;;;;;;;10.52;6.45;;;17.60;99.90;;;;;;5091133;28;20487;-72
2023/09/28 02:31:31;;;;;;;7.78;5.72;;;17.50;99.90;;;;;;5091510;28;20037;-72
2023/09/28 02:33:57;;;;;;;8.00;5.80;;;17.50;99.90;;;;;;5073368;28;20044;-72
2023/09/28 02:36:23;;;;;;;9.30;6.15;;;17.50;99.90;;;;;;5091291;28;20032;-72
2023/09/28 02:38:50;;;;;;;6.38;5.70;;;17.50;99.90;;;;;;5073090;28;20081;-72
2023/09/28 02:41:17;;;;;;;8.00;6.07;;;17.50;99.90;;;;;;5073156;28;20495;-72
2023/09/28 02:43:43;;;;;;;8.57;6.05;;;17.40;99.90;;;;;;5091214;28;20222;-72
2023/09/28 02:46:08;;;;;;;9.20;5.45;;;17.30;99.90;;;;;;5091109;28;20040;-73
2023/09/28 02:48:34;;;;;;;9.10;6.03;;;17.30;99.90;;;;;;5073187;28;20036;-72
2023/09/28 02:51:04;;;;;;;10.60;6.45;;;17.30;99.90;;;;;;5072933;28;20040;-72
2023/09/28 02:53:33;;;;;;;9.88;6.20;;;17.30;99.90;;;;;;5091145;28;20052;-73
2023/09/28 02:55:59;;;;;;;9.20;6.40;;;17.30;99.90;;;;;;5073340;28;20036;-73
2023/09/28 02:58:25;;;;;;;7.22;5.90;;;17.30;99.90;;;;;;5091264;28;20571;-72
2023/09/28 03:00:55;;;;;;;9.93;6.00;;;17.30;99.90;;;;;;5076058;28;20040;-73
2023/09/28 03:03:21;;;;;;;8.63;6.22;;;17.30;99.90;;;;;;5094837;28;20048;-72
2023/09/28 03:05:47;;;;;;;8.85;5.95;;;17.30;99.90;;;;;;5076564;28;20572;-72
2023/09/28 03:08:14;;;;;;;10.07;6.20;;;17.30;99.90;;;;;;5076631;28;20036;-73
2023/09/28 03:10:44;;;;;;;9.98;6.03;;;17.30;99.90;;;;;;5076346;28;20040;-72
2023/09/28 03:13:11;;;;;;;8.38;5.95;;;17.20;99.90;;;;;;5076719;28;20047;-72
2023/09/28 03:15:39;;;;;;;9.45;6.28;;;17.20;99.90;;;;;;5076823;28;20093;-72
2023/09/28 03:18:05;;;;;;;10.30;6.70;;;17.10;99.90;;;;;;5076387;28;20414;-73
2023/09/28 03:20:31;;;;;;;9.45;5.93;;;17.10;99.90;;;;;;5076118;28;20122;-73
2023/09/28 03:22:57;;;;;;;7.45;6.35;;;17.00;99.90;;;;;;5076569;28;20086;-73
2023/09/28 03:25:22;;;;;;;10.52;6.50;;;17.00;99.90;;;;;;5059704;28;20518;-73
2023/09/28 03:27:50;;;;;;;8.15;6.00;;;17.00;99.90;;;;;;5076331;28;20044;-73
2023/09/28 03:30:17;;;;;;;10.55;6.38;;;17.10;99.90;;;;;;5059142;28;20130;-73
2023/09/28 03:32:43;;;;;;;12.52;5.90;;;17.10;99.90;;;;;;5076357;28;20126;-72
2023/09/28 03:35:12;;;;;;;9.50;6.75;;;17.00;99.90;;;;;;5075982;28;20043;-72
2023/09/28 03:37:38;;;;;;;7.57;5.95;;;17.00;99.90;;;;;;5076284;28;20450;-72
2023/09/28 03:40:11;;;;;;;9.93;6.47;;;17.10;99.90;;;;;;5075797;28;20032;-71
2023/09/28 03:42:40;;;;;;;10.20;6.28;;;17.00;99.90;;;;;;5076315;28;20491;-72
2023/09/28 03:45:09;;;;;;;7.82;6.32;;;17.10;99.90;;;;;;5075676;28;20414;-72
2023/09/28 03:47:39;;;;;;;9.30;6.88;;;17.00;99.90;;;;;;5076125;28;20097;-73
2023/09/28 03:50:10;;;;;;;8.07;6.70;;;17.00;99.90;;;;;;5075578;28;20047;-72
2023/09/28 03:52:37;;;;;;;10.57;6.70;;;17.00;99.90;;;;;;5075827;28;20537;-73
2023/09/28 03:55:24;;;;;;;9.10;6.68;;;17.00;99.90;;;;;;5093939;28;20119;-72
2023/09/28 03:57:50;;;;;;;10.27;7.38;;;17.00;99.90;;;;;;5076020;28;20040;-73
2023/09/28 04:00:18;;;;;;;12.30;7.13;;;16.90;99.90;;;;;;5058825;28;20044;-72
2023/09/28 04:02:50;;;;;;;9.77;6.80;;;16.90;99.90;;;;;;5075923;28;20066;-73
2023/09/28 04:05:16;;;;;;;10.15;7.13;;;16.90;99.90;;;;;;5075487;28;20051;-73
2023/09/28 04:07:41;;;;;;;10.32;6.88;;;16.80;99.90;;;;;;5075637;28;20036;-72
2023/09/28 04:10:08;;;;;;;8.48;6.78;;;16.80;99.90;;;;;;5093301;28;20043;-72
2023/09/28 04:12:34;;;;;;;11.32;7.32;;;16.80;99.90;;;;;;5092673;28;20032;-72
2023/09/28 04:15:00;;;;;;;12.52;8.35;;;16.80;99.90;;;;;;5075368;28;20044;-74
2023/09/28 04:17:26;;;;;;;9.55;6.55;;;16.80;99.90;;;;;;5075673;28;20150;-75
2023/09/28 04:19:52;;;;;;;12.55;7.57;;;16.80;99.90;;;;;;5075186;28;20517;-75
2023/09/28 04:22:18;;;;;;;11.50;6.82;;;16.70;99.90;;;;;;5075434;28;20043;-74
2023/09/28 04:24:44;;;;;;;12.20;8.02;;;16.70;99.90;;;;;;5075202;28;20048;-72
2023/09/28 04:27:10;;;;;;;10.23;7.78;;;16.70;99.90;;;;;;5058271;28;20144;-72
2023/09/28 04:29:35;;;;;;;9.93;7.53;;;16.70;99.90;;;;;;5075084;28;20040;-72
2023/09/28 04:32:01;;;;;;;11.45;8.20;;;16.60;99.90;;;;;;5075148;28;20040;-72
2023/09/28 04:34:29;;;;;;;9.40;7.28;;;16.60;99.90;;;;;;5093482;28;20043;-73
2023/09/28 04:36:55;;;;;;;11.52;8.05;;;16.60;99.90;;;;;;5093363;28;20048;-72
2023/09/28 04:39:23;;;;;;;9.63;7.63;;;16.60;99.90;;;;;;5092850;28;20151;-73
2023/09/28 04:41:50;;;;;;;12.63;6.93;;;16.60;99.90;;;;;;5075071;28;20044;-73
2023/09/28 04:44:15;;;;;;;12.77;8.07;;;16.60;99.90;;;;;;5074866;28;20036;-73
2023/09/28 04:46:41;;;;;;;12.85;7.45;;;16.60;99.90;;;;;;5075222;28;20043;-72
2023/09/28 04:49:07;;;;;;;12.52;7.82;;;16.60;99.90;;;;;;5074879;28;20053;-73
2023/09/28 04:51:33;;;;;;;10.88;7.88;;;16.60;99.90;;;;;;5074918;28;20061;-72
2023/09/28 04:54:04;;;;;;;11.23;8.25;;;16.50;99.90;;;;;;5074897;28;20040;-73
2023/09/28 04:56:31;;;;;;;10.77;7.90;;;16.50;99.90;;;;;;5074517;28;20088;-72
2023/09/28 04:58:59;;;;;;;11.10;8.48;;;16.50;99.90;;;;;;5092583;28;20062;-72
2023/09/28 05:01:25;;;;;;;14.93;8.05;;;16.50;99.90;;;;;;5092517;28;20044;-72
2023/09/28 05:03:50;;;;;;;13.48;8.50;;;16.50;99.90;;;;;;5074484;28;20036;-72
2023/09/28 05:06:16;;;;;;;14.40;9.40;;;16.40;99.90;;;;;;5074369;28;20126;-72
2023/09/28 05:08:42;;;;;;;11.98;8.77;;;16.40;99.90;;;;;;5074079;28;20032;-72
2023/09/28 05:11:08;;;;;;;12.63;8.23;;;16.40;99.90;;;;;;5074158;28;20036;-72
2023/09/28 05:13:35;;;;;;;11.70;8.75;;;16.40;99.90;;;;;;5074216;28;20572;-72
2023/09/28 05:16:00;;;;;;;12.05;8.73;;;16.30;99.90;;;;;;5074337;28;20423;-72
2023/09/28 05:18:26;;;;;;;10.57;8.23;;;16.30;99.90;;;;;;5074044;28;20035;-72
2023/09/28 05:20:52;;;;;;;13.40;9.30;;;16.40;99.90;;;;;;5092088;28;20156;-72
2023/09/28 05:23:18;;;;;;;10.82;7.25;;;16.40;99.90;;;;;;5092201;28;20028;-72
2023/09/28 05:25:44;;;;;;;12.18;7.80;;;16.30;99.90;;;;;;5092415;28;20040;-73
2023/09/28 05:28:10;;;;;;;15.80;7.53;;;16.30;99.90;;;;;;5073791;28;20055;-72
2023/09/28 05:30:36;;;;;;;12.63;8.02;;;16.40;99.90;;;;;;5073310;28;20032;-72
2023/09/28 05:33:02;;;;;;;9.85;7.85;;;16.40;99.90;;;;;;5092036;28;20036;-74
2023/09/28 05:35:27;;;;;;;10.82;8.10;;;16.30;99.90;;;;;;5092189;28;20115;-74
2023/09/28 05:37:53;;;;;;;10.95;7.20;;;16.30;99.90;;;;;;5092069;28;20113;-74
2023/09/28 05:40:18;;;;;;;10.73;7.88;;;16.30;99.90;;;;;;5091900;28;20082;-74
2023/09/28 05:42:44;;;;;;;12.93;7.88;;;16.30;99.90;;;;;;5092245;28;20464;-74
2023/09/28 05:45:09;;;;;;;10.40;7.53;;;16.30;99.90;;;;;;5073745;28;20040;-75
2023/09/28 05:47:35;;;;;;;12.15;7.63;;;16.20;99.90;;;;;;5073910;28;20036;-74
2023/09/28 05:50:02;;;;;;;11.65;7.97;;;16.20;99.90;;;;;;5073563;28;20065;-74
2023/09/28 05:52:28;;;;;;;12.60;8.30;;;16.20;99.90;;;;;;5074035;28;20210;-74
2023/09/28 05:54:53;;;;;;;10.13;7.20;;;16.20;99.90;;;;;;5092011;28;20044;-75
2023/09/28 05:57:22;;;;;;;8.50;7.18;;;16.20;99.90;;;;;;5073808;28;20495;-75
2023/09/28 05:59:48;;;;;;;10.98;7.47;;;16.20;99.90;;;;;;5056753;28;20055;-74
2023/09/28 06:02:14;;;;;;;9.85;7.45;;;16.20;99.90;;;;;;5073973;28;20044;-74
2023/09/28 06:04:41;;;;;;;13.48;8.30;;;16.20;99.90;;;;;;5091719;28;20443;-75
2023/09/28 06:07:06;;;;;;;12.85;6.68;;;16.20;99.90;;;;;;5073912;28;20395;-74
2023/09/28 06:09:32;;;;;;;11.05;7.60;;;16.20;99.90;;;;;;5073318;28;20032;-75
2023/09/28 06:11:58;;;;;;;11.63;7.38;;;16.30;99.90;;;;;;5073635;28;20036;-74
2023/09/28 06:14:24;;;;;;;10.82;6.97;;;16.40;99.90;;;;;;5073575;28;20036;-75
2023/09/28 06:16:49;;;;;;;10.75;6.97;;;16.40;99.90;;;;;;5073596;28;20047;-73
2023/09/28 06:19:15;;;;;;;15.85;6.80;;;16.40;99.90;;;;;;5073331;28;20036;-75
2023/09/28 06:21:41;;;;;;;13.30;5.82;;;16.40;99.90;;;;;;5073538;28;20414;-75
2023/09/28 06:24:07;;;;;;;17.88;6.05;;;16.50;99.90;;;;;;5073214;28;20036;-75
2023/09/28 06:26:33;;;;;;;13.93;5.82;;;16.50;99.90;;;;;;5091697;28;20032;-76
2023/09/28 06:28:59;;;;;;;22.27;6.88;;;16.60;99.90;;;;;;5073740;28;20040;-76
2023/09/28 06:31:25;;;;;;;16.35;5.30;;;16.70;99.90;;;;;;5073585;28;20046;-75
2023/09/28 06:33:50;;;;;;;14.32;5.45;;;16.80;99.90;;;;;;5073857;28;20048;-76
2023/09/28 06:36:18;;;;;;;20.55;6.82;;;16.90;99.90;;;;;;5077251;28;20035;-76
2023/09/28 06:38:43;;;;;;;19.23;5.07;;;17.00;99.90;;;;;;5077246;28;20048;-75
2023/09/28 06:41:09;;;;;;;12.00;4.50;;;17.00;99.90;;;;;;5077116;28;20047;-76
2023/09/28 06:43:37;;;;;;;15.35;5.03;;;17.10;99.90;;;;;;5077171;28;20073;-76
2023/09/28 06:46:03;;;;;;;16.33;5.15;;;17.10;99.90;;;;;;5077073;28;20040;-75
2023/09/28 06:48:29;;;;;;;11.77;5.40;;;17.00;99.90;;;;;;5095383;28;20036;-75
2023/09/28 06:50:57;;;;;;;14.38;5.60;;;17.10;99.90;;;;;;5094870;28;20046;-74
2023/09/28 06:53:24;;;;;;;10.57;4.95;;;17.00;99.90;;;;;;5095307;28;20050;-73
2023/09/28 06:55:50;;;;;;;10.00;5.95;;;17.10;99.90;;;;;;5095125;28;20089;-74
2023/09/28 06:58:17;;;;;;;10.88;5.63;;;17.10;99.90;;;;;;5095093;28;20036;-73
2023/09/28 07:00:44;;;;;;;11.00;5.72;;;17.20;99.90;;;;;;5076614;28;20056;-74
2023/09/28 07:03:10;;;;;;;16.33;6.03;;;17.30;99.90;;;;;;5094855;28;20503;-73
2023/09/28 07:05:36;;;;;;;18.80;5.10;;;17.30;99.90;;;;;;5094886;28;20046;-73
2023/09/28 07:08:05;;;;;;;12.38;5.15;;;17.50;99.90;;;;;;5094829;28;20411;-73
2023/09/28 07:10:32;;;;;;;9.23;4.57;;;17.50;99.90;;;;;;5076566;28;20039;-73
2023/09/28 07:13:00;;;;;;;15.32;5.28;;;17.60;99.90;;;;;;5076659;28;20040;-73
2023/09/28 07:15:28;;;;;;;12.13;5.82;;;17.70;99.90;;;;;;5091385;28;20032;-73
2023/09/28 07:17:55;;;;;;;14.55;6.30;;;17.80;99.90;;;;;;5070523;28;20067;-74
2023/09/28 07:20:20;;;;;;;11.02;5.13;;;17.90;99.90;;;;;;5059880;28;20090;-73
2023/09/28 07:22:46;;;;;;;11.75;5.60;;;18.00;99.90;;;;;;5094648;28;20071;-74
2023/09/28 07:25:12;;;;;;;12.50;4.80;;;17.90;99.90;;;;;;5094467;28;20047;-73
2023/09/28 07:27:37;;;;;;;15.52;5.35;;;17.90;99.90;;;;;;5076420;28;20051;-73
2023/09/28 07:30:05;;;;;;;14.15;4.65;;;17.80;99.90;;;;;;5076026;28;20178;-73
2023/09/28 07:32:31;;;;;;;14.38;4.63;;;17.80;99.90;;;;;;5076257;28;20051;-73
2023/09/28 07:34:57;;;;;;;17.50;5.25;;;18.00;99.90;;;;;;5094570;28;20043;-74
2023/09/28 07:37:24;;;;;;;12.90;4.93;;;18.30;99.90;;;;;;5076372;28;20040;-74
2023/09/28 07:39:50;;;;;;;12.00;5.00;;;18.40;99.90;;;;;;5076179;28;20410;-74
2023/09/28 07:42:16;;;;;;;12.98;4.03;;;18.60;99.90;;;;;;5076137;28;20048;-74
2023/09/28 07:44:47;;;;;;;13.48;4.93;;;18.70;99.90;;;;;;5094060;28;20044;-76
2023/09/28 07:47:13;;;;;;;12.15;4.07;;;18.90;99.90;;;;;;5075184;28;20040;-74
2023/09/28 07:49:40;;;;;;;14.40;4.18;;;19.10;99.90;;;;;;5076047;28;20028;-74
2023/09/28 07:52:08;;;;;;;17.88;5.32;;;19.20;99.90;;;;;;5076147;28;20040;-72
2023/09/28 07:54:35;;;;;;;16.50;4.18;;;19.30;99.90;;;;;;5076203;28;20059;-74
2023/09/28 07:57:03;;;;;;;19.63;5.10;;;19.60;99.90;;;;;;5076166;28;20395;-73
2023/09/28 07:59:31;;;;;;;16.80;4.20;;;19.80;99.90;;;;;;5075482;28;20046;-74
2023/09/28 08:01:56;;;;;;;23.40;4.63;;;19.80;99.90;;;;;;5075601;28;20048;-74
2023/09/28 08:04:22;;;;;;;20.70;3.75;;;19.90;99.90;;;;;;5075588;28;20043;-71
2023/09/28 08:06:47;;;;;;;16.30;4.80;;;19.90;99.90;;;;;;5059097;28;20042;-74
2023/09/28 08:09:14;;;;;;;22.00;3.67;;;20.00;99.90;;;;;;5077383;28;20438;-74
2023/09/28 08:11:43;;;;;;;18.23;3.50;;;20.00;99.90;;;;;;5083807;28;20036;-74
2023/09/28 08:14:15;;;;;;;17.65;4.10;;;20.00;99.90;;;;;;5080769;28;20062;-76
2023/09/28 08:16:45;;;;;;;12.40;3.67;;;20.10;99.90;;;;;;5068597;28;20128;-75
2023/09/28 08:19:11;;;;;;;16.33;3.88;;;20.00;99.90;;;;;;5069375;28;20044;-75
2023/09/28 08:21:38;;;;;;;19.75;4.05;;;19.90;99.90;;;;;;5072563;28;20032;-75
2023/09/28 08:24:05;;;;;;;15.57;4.65;;;20.00;99.90;;;;;;5075522;28;20491;-75
2023/09/28 08:26:31;;;;;;;16.00;3.55;;;19.90;99.90;;;;;;5075155;28;20040;-75
2023/09/28 08:28:58;;;;;;;22.20;4.22;;;20.00;99.90;;;;;;5093434;28;20089;-75
2023/09/28 08:31:24;;;;;;;20.33;4.82;;;20.00;99.90;;;;;;5093330;28;20043;-75
2023/09/28 08:33:50;;;;;;;23.20;4.25;;;20.00;99.90;;;;;;5092967;28;20111;-75
2023/09/28 08:36:16;;;;;;;21.48;5.22;;;19.90;99.90;;;;;;5075047;28;20048;-75
2023/09/28 08:38:41;;;;;;;18.30;4.20;;;20.00;99.90;;;;;;5075133;28;20036;-74
2023/09/28 08:41:09;;;;;;;19.92;3.90;;;20.10;99.90;;;;;;5075120;28;20515;-75
2023/09/28 08:43:42;;;;;;;18.08;3.58;;;20.20;99.90;;;;;;5093301;28;20044;-75
2023/09/28 08:46:12;;;;;;;19.10;3.47;;;20.00;99.90;;;;;;5074564;28;20051;-75
2023/09/28 08:48:42;;;;;;;18.08;3.75;;;19.90;99.90;;;;;;5093093;28;20036;-75
2023/09/28 08:51:11;;;;;;;18.92;4.15;;;19.90;99.90;;;;;;5074977;28;20036;-74
2023/09/28 08:53:38;;;;;;;18.92;4.35;;;19.80;99.90;;;;;;5074655;28;20053;-75
2023/09/28 08:56:05;;;;;;;15.68;4.03;;;20.00;99.90;;;;;;5084829;28;20083;-75
2023/09/28 08:58:35;;;;;;;19.17;4.60;;;19.90;99.90;;;;;;5091618;28;20111;-75
2023/09/28 09:01:02;;;;;;;24.00;4.85;;;19.90;99.90;;;;;;5061543;28;20496;-75
2023/09/28 09:03:28;;;;;;;16.90;4.72;;;19.60;99.90;;;;;;5065124;28;20079;-75
2023/09/28 09:05:56;;;;;;;22.45;4.78;;;19.60;99.90;;;;;;5063057;28;20040;-75
2023/09/28 09:08:23;;;;;;;25.40;4.95;;;19.70;99.90;;;;;;5064864;28;20047;-75
2023/09/28 09:10:51;;;;;;;19.80;4.35;;;19.90;99.90;;;;;;5062720;28;20063;-75
2023/09/28 09:13:20;;;;;;;19.75;4.15;;;19.70;99.90;;;;;;5064286;28;20040;-75
2023/09/28 09:15:46;;;;;;;23.50;5.72;;;19.70;99.90;;;;;;5040102;28;20036;-75
2023/09/28 09:18:24;;;;;;;21.58;4.55;;;19.60;99.90;;;;;;5054288;28;20047;-75
2023/09/28 09:20:58;;;;;;;18.65;4.13;;;19.50;99.90;;;;;;5053883;28;20032;-75
2023/09/28 09:23:25;;;;;;;21.35;4.00;;;19.50;99.90;;;;;;5054212;28;20040;-75
2023/09/28 09:25:53;;;;;;;24.20;4.68;;;19.40;99.90;;;;;;5054477;28;20499;-75
2023/09/28 09:28:32;;;;;;;21.23;5.70;;;19.50;99.90;;;;;;5054157;28;20040;-75
2023/09/28 09:30:58;;;;;;;19.50;4.57;;;19.40;99.90;;;;;;5056751;28;20028;-74
2023/09/28 09:33:25;;;;;;;22.52;5.93;;;19.30;99.90;;;;;;5063852;28;20036;-75
2023/09/28 09:35:51;;;;;;;18.90;4.25;;;19.30;99.90;;;;;;5073892;28;20117;-75
2023/09/28 09:38:27;;;;;;;17.70;4.13;;;19.20;99.90;;;;;;5068051;28;20033;-75
2023/09/28 09:41:00;;;;;;;20.58;4.22;;;19.20;99.90;;;;;;5062092;28;20036;-75
2023/09/28 09:43:40;;;;;;;25.75;4.63;;;19.10;99.90;;;;;;5069460;28;20052;-75
2023/09/28 09:46:07;;;;;;;22.02;3.95;;;19.10;99.90;;;;;;5074237;28;20122;-76
2023/09/28 09:48:43;;;;;;;18.60;3.65;;;19.00;99.90;;;;;;5074077;28;20051;-75
2023/09/28 09:51:12;;;;;;;19.77;4.18;;;18.90;99.90;;;;;;5073801;28;20040;-75
2023/09/28 09:53:42;;;;;;;20.23;4.20;;;18.80;99.90;;;;;;5092109;28;20036;-75
2023/09/28 09:56:10;;;;;;;24.05;4.43;;;18.80;99.90;;;;;;5073621;28;20044;-74
2023/09/28 09:58:40;;;;;;;22.60;5.28;;;18.90;99.90;;;;;;5073661;28;20036;-75
2023/09/28 10:01:12;;;;;;;17.27;3.70;;;18.90;99.90;;;;;;5092026;28;20032;-75
2023/09/28 10:03:41;;;;;;;17.77;3.42;;;19.00;99.90;;;;;;5073580;28;20040;-75
2023/09/28 10:06:07;;;;;;;18.58;4.32;;;19.10;99.90;;;;;;5073646;28;20078;-75
2023/09/28 10:08:33;;;;;;;16.85;4.38;;;19.10;99.90;;;;;;5073096;28;20039;-75
2023/09/28 10:11:00;;;;;;;17.75;4.45;;;19.10;99.90;;;;;;5073343;28;20040;-75
2023/09/28 10:13:31;;;;;;;19.05;4.45;;;19.10;99.90;;;;;;5073695;28;20047;-75
2023/09/28 10:16:01;;;;;;;18.63;4.00;;;19.10;99.90;;;;;;5073413;28;20078;-75
2023/09/28 10:18:29;;;;;;;20.42;4.43;;;19.10;99.90;;;;;;5073964;28;20056;-75
2023/09/28 10:20:55;;;;;;;20.75;4.32;;;19.10;99.90;;;;;;5073184;28;20040;-74
2023/09/28 10:23:26;;;;;;;20.73;3.58;;;19.10;99.90;;;;;;5073388;28;20039;-74
2023/09/28 10:26:03;;;;;;;16.27;4.22;;;19.10;99.90;;;;;;5073696;28;20044;-75
2023/09/28 10:28:29;;;;;;;17.02;4.70;;;19.10;99.90;;;;;;5073885;28;20495;-75
2023/09/28 10:31:21;;;;;;;18.58;3.58;;;19.10;99.90;;;;;;5073128;28;20043;-75
2023/09/28 10:34:00;;;;;;;9.80;3.60;;;19.10;99.90;;;;;;5069814;28;20056;-76
2023/09/28 10:36:26;;;;;;;12.43;3.47;;;19.10;99.90;;;;;;5056827;28;20282;-75
2023/09/28 10:39:11;;;;;;;20.52;3.28;;;19.10;99.90;;;;;;5091408;28;20044;-75
2023/09/28 10:41:38;;;;;;;16.67;3.53;;;19.10;99.90;;;;;;5073371;28;20058;-75
2023/09/28 10:44:14;;;;;;;11.98;3.92;;;19.10;99.90;;;;;;5091292;28;20044;-75
2023/09/28 10:46:51;;;;;;;16.40;4.03;;;19.00;99.90;;;;;;5091292;28;20040;-75
2023/09/28 10:49:26;;;;;;;20.08;4.00;;;19.00;99.90;;;;;;5073214;28;20041;-75
2023/09/28 10:51:52;;;;;;;12.20;3.20;;;19.00;99.90;;;;;;5073354;28;20122;-75
2023/09/28 10:54:18;;;;;;;14.00;3.95;;;19.00;99.90;;;;;;5073296;28;20043;-75
2023/09/28 10:56:48;;;;;;;13.43;3.17;;;18.90;99.90;;;;;;5062125;28;20119;-74
2023/09/28 10:59:14;;;;;;;14.38;3.28;;;18.90;99.90;;;;;;5036448;28;20054;-75
2023/09/28 11:01:47;;;;;;;20.73;4.38;;;18.90;99.90;;;;;;5071250;28;20044;-75
2023/09/28 11:04:13;;;;;;;;;;;18.80;99.90;;;;;;5053551;28;20558;-74
2023/09/28 11:06:41;;;;;;;17.70;5.22;;;18.80;99.90;;;;;;5053013;28;19920;-75
2023/09/28 11:09:09;;;;;;;13.27;3.58;;;18.80;99.90;;;;;;5052990;28;20377;-74
2023/09/28 11:11:37;;;;;;;19.25;4.70;;;18.90;99.90;;;;;;5053369;28;20041;-75
2023/09/28 11:14:05;;;;;;;17.48;3.70;;;18.90;99.90;;;;;;5053273;28;20036;-75
2023/09/28 11:16:33;;;;;;;25.02;3.67;;;19.00;99.90;;;;;;5053174;28;20037;-74
2023/09/28 11:18:59;;;;;;;23.63;6.20;;;19.00;99.90;;;;;;5052880;28;20503;-74
2023/09/28 11:21:26;;;;;;;17.80;4.10;;;19.00;99.90;;;;;;5038739;28;20128;-74
2023/09/28 11:23:52;;;;;;;23.05;5.13;;;19.00;99.90;;;;;;5056471;28;20043;-74
2023/09/28 11:26:19;;;;;;;21.70;4.22;;;18.90;99.90;;;;;;5056471;28;20079;-74
2023/09/28 11:28:45;;;;;;;12.93;3.30;;;19.00;99.90;;;;;;5056651;28;20362;-74
2023/09/28 11:31:12;;;;;;;18.17;4.90;;;19.00;99.90;;;;;;5056393;28;20116;-74
2023/09/28 11:33:43;;;;;;;18.13;4.57;;;18.90;99.90;;;;;;5056399;28;20087;-74
2023/09/28 11:36:16;;;;;;;20.10;5.18;;;18.90;99.90;;;;;;5056152;28;20042;-73
2023/09/28 11:38:44;;;;;;;18.77;4.00;;;18.80;99.90;;;;;;5074136;28;20575;-75
2023/09/28 11:41:09;;;;;;;21.50;4.55;;;18.90;99.90;;;;;;5074206;28;20046;-74
2023/09/28 11:43:46;;;;;;;16.35;4.25;;;18.90;99.90;;;;;;5056143;28;20167;-73
2023/09/28 11:46:13;;;;;;;17.55;3.55;;;18.90;99.90;;;;;;5039313;28;20033;-75
2023/09/28 11:48:39;;;;;;;13.80;4.55;;;19.00;99.90;;;;;;5055866;28;20044;-73
2023/09/28 11:51:05;;;;;;;15.82;3.45;;;18.90;99.90;;;;;;5039367;28;20049;-74
2023/09/28 11:53:31;;;;;;;14.98;3.15;;;18.90;99.90;;;;;;5073997;28;20047;-72
2023/09/28 11:55:59;;;;;;;18.77;2.97;;;18.90;99.90;;;;;;5073832;28;20041;-74
2023/09/28 11:58:25;;;;;;;17.25;4.03;;;18.80;99.90;;;;;;5055563;28;20104;-74
2023/09/28 12:00:50;;;;;;;17.95;4.22;;;18.80;99.90;;;;;;5073570;28;20067;-73
2023/09/28 12:03:16;;;;;;;20.48;3.72;;;18.80;99.90;;;;;;5073496;28;20488;-73
2023/09/28 12:05:42;;;;;;;17.08;3.35;;;18.80;99.90;;;;;;5055620;28;20116;-73
2023/09/28 12:08:07;;;;;;;19.80;4.15;;;18.80;99.90;;;;;;5073706;28;20079;-73
2023/09/28 12:10:33;;;;;;;22.50;4.53;;;18.80;99.90;;;;;;5073560;28;20079;-73
2023/09/28 12:12:59;;;;;;;16.50;4.03;;;18.80;99.90;;;;;;5073713;28;20377;-73
2023/09/28 12:15:24;;;;;;;24.65;4.07;;;18.90;99.90;;;;;;5073669;28;20041;-73
2023/09/28 12:17:50;;;;;;;18.83;4.35;;;19.00;99.90;;;;;;5055379;28;20499;-73
2023/09/28 12:20:15;;;;;;;22.85;4.10;;;19.00;99.90;;;;;;5055329;28;20461;-73
2023/09/28 12:22:45;;;;;;;21.98;4.93;;;19.00;99.90;;;;;;5073409;28;20041;-73
2023/09/28 12:25:13;;;;;;;21.33;4.20;;;19.10;99.90;;;;;;5073259;28;20048;-74
2023/09/28 12:27:39;;;;;;;16.98;3.80;;;19.00;99.90;;;;;;5055640;28;20041;-73
2023/09/28 12:30:06;;;;;;;23.85;4.13;;;19.10;99.90;;;;;;5072862;28;20500;-73
2023/09/28 12:32:32;;;;;;;17.00;3.05;;;19.20;99.90;;;;;;5054563;28;20040;-73
2023/09/28 12:35:00;;;;;;;14.10;3.50;;;19.10;99.90;;;;;;5073279;28;20119;-73
2023/09/28 12:37:26;;;;;;;15.50;3.78;;;19.10;99.90;;;;;;5073201;28;20040;-73
2023/09/28 12:39:53;;;;;;;15.73;3.13;;;19.00;99.90;;;;;;5072678;28;20066;-74
2023/09/28 12:42:25;;;;;;;18.73;4.72;;;19.10;99.90;;;;;;5055016;28;20074;-73
2023/09/28 12:44:51;;;;;;;19.13;5.57;;;19.00;99.90;;;;;;5072579;28;20044;-74